Time;durP1;ratioP1;P1;durP2;ratioP2;P2;SDS_P1;SDS_P2;PMS_P1;PMS_P2;Temp;Humidity;BMP_temperature;BMP_pressure;BME280_temperature;BME280_humidity;BME280_pressure;Samples;Min_cycle;Max_cycle;Signal;HPM_P1;HPM_P2
2022/02/18 00:00:21;;;;;;;8.90;1.38;;;6.80;99.90;;;;;;5059396;28;20112;-72
2022/02/18 00:02:48;;;;;;;6.28;1.40;;;6.80;99.90;;;;;;5058768;28;20088;-72
2022/02/18 00:05:15;;;;;;;10.13;1.50;;;6.90;99.90;;;;;;5056404;28;20128;-72
2022/02/18 00:07:42;;;;;;;10.48;1.95;;;6.90;99.90;;;;;;5052924;28;20136;-70
2022/02/18 00:10:10;;;;;;;12.15;2.75;;;6.90;99.90;;;;;;5052135;28;20135;-71
2022/02/18 00:12:37;;;;;;;14.85;2.20;;;6.90;99.90;;;;;;5052882;28;20136;-71
2022/02/18 00:15:05;;;;;;;7.38;1.48;;;6.90;99.90;;;;;;5052528;28;20504;-72
2022/02/18 00:17:33;;;;;;;14.05;2.65;;;6.80;99.90;;;;;;5052143;28;20059;-72
2022/02/18 00:20:00;;;;;;;9.38;1.58;;;6.80;99.90;;;;;;5052774;28;20492;-71
2022/02/18 00:22:28;;;;;;;10.75;2.00;;;6.80;99.90;;;;;;5052849;28;20451;-71
2022/02/18 00:24:54;;;;;;;13.48;2.13;;;6.70;99.90;;;;;;5051689;28;20065;-71
2022/02/18 00:27:21;;;;;;;10.70;1.70;;;6.50;99.90;;;;;;5052979;28;20413;-72
2022/02/18 00:29:48;;;;;;;12.90;2.00;;;6.50;99.90;;;;;;5053755;28;20076;-72
2022/02/18 00:32:15;;;;;;;9.88;2.25;;;6.40;99.90;;;;;;5051871;28;20081;-72
2022/02/18 00:34:44;;;;;;;19.50;2.22;;;6.30;99.90;;;;;;5055280;28;20131;-73
2022/02/18 00:37:10;;;;;;;10.80;2.55;;;6.20;99.90;;;;;;5056387;28;20099;-73
2022/02/18 00:39:38;;;;;;;14.73;2.85;;;6.20;99.90;;;;;;5056917;28;20056;-72
2022/02/18 00:42:05;;;;;;;19.30;2.70;;;6.20;99.90;;;;;;5057529;28;20049;-72
2022/02/18 00:44:32;;;;;;;14.10;2.40;;;6.20;99.90;;;;;;5052240;28;20139;-72
2022/02/18 00:46:59;;;;;;;16.10;2.25;;;6.20;99.90;;;;;;5057265;28;20076;-73
2022/02/18 00:49:26;;;;;;;8.23;1.98;;;6.10;99.90;;;;;;5058497;28;20079;-72
2022/02/18 00:51:54;;;;;;;14.50;2.28;;;6.10;99.90;;;;;;5059569;28;20081;-72
2022/02/18 00:54:21;;;;;;;13.10;2.20;;;6.10;99.90;;;;;;5057726;28;20114;-71
2022/02/18 00:56:50;;;;;;;16.95;2.75;;;6.10;99.90;;;;;;5058409;28;20088;-71
2022/02/18 00:59:18;;;;;;;11.02;2.08;;;6.10;99.90;;;;;;5052834;28;20110;-73
2022/02/18 01:01:45;;;;;;;14.60;2.20;;;6.10;99.90;;;;;;5057280;28;20104;-71
2022/02/18 01:04:12;;;;;;;10.55;1.75;;;6.10;99.90;;;;;;5058085;28;20081;-71
2022/02/18 01:06:39;;;;;;;17.85;2.75;;;6.10;99.90;;;;;;5059718;28;20084;-71
2022/02/18 01:09:08;;;;;;;13.27;2.20;;;6.10;99.90;;;;;;5059329;28;20464;-71
2022/02/18 01:11:35;;;;;;;7.25;1.80;;;6.10;99.90;;;;;;5056361;28;20084;-71
2022/02/18 01:14:03;;;;;;;11.95;2.13;;;6.00;99.90;;;;;;5051782;28;20132;-71
2022/02/18 01:16:30;;;;;;;11.57;2.13;;;6.00;99.90;;;;;;5051474;28;20136;-73
2022/02/18 01:18:57;;;;;;;12.32;1.40;;;6.00;99.90;;;;;;5059845;28;20136;-70
2022/02/18 01:21:24;;;;;;;13.65;3.08;;;6.00;99.90;;;;;;5062835;28;20102;-71
2022/02/18 01:23:52;;;;;;;14.95;2.13;;;6.00;99.90;;;;;;5061693;28;20099;-72
2022/02/18 01:26:20;;;;;;;12.15;1.65;;;6.00;99.90;;;;;;5062327;28;20091;-72
2022/02/18 01:28:47;;;;;;;15.18;3.33;;;5.90;99.90;;;;;;5062677;28;20049;-71
2022/02/18 01:31:14;;;;;;;9.43;1.67;;;5.90;99.90;;;;;;5060940;28;20081;-72
2022/02/18 01:33:41;;;;;;;10.20;2.22;;;5.90;99.90;;;;;;5061723;28;20139;-71
2022/02/18 01:36:08;;;;;;;11.30;1.92;;;5.90;99.90;;;;;;5062576;28;20087;-70
2022/02/18 01:38:35;;;;;;;19.10;2.53;;;5.90;99.90;;;;;;5058966;28;20057;-72
2022/02/18 01:41:02;;;;;;;9.05;1.85;;;5.90;99.90;;;;;;5061847;28;20088;-71
2022/02/18 01:43:31;;;;;;;12.45;2.42;;;5.90;99.90;;;;;;5061552;28;20079;-72
2022/02/18 01:45:58;;;;;;;12.43;2.20;;;5.90;99.90;;;;;;5062075;28;20133;-72
2022/02/18 01:48:24;;;;;;;15.60;2.27;;;5.90;99.90;;;;;;5061698;28;20136;-72
2022/02/18 01:50:52;;;;;;;7.93;1.95;;;5.90;99.90;;;;;;5061139;28;20095;-72
2022/02/18 01:53:19;;;;;;;11.50;2.67;;;6.00;99.90;;;;;;5061029;28;20080;-71
2022/02/18 01:55:45;;;;;;;17.67;2.05;;;6.00;99.90;;;;;;5061508;28;20124;-72
2022/02/18 01:58:12;;;;;;;13.83;2.57;;;5.90;99.90;;;;;;5061399;28;20089;-72
2022/02/18 02:00:41;;;;;;;15.18;2.17;;;5.90;99.90;;;;;;5061363;28;20140;-72
2022/02/18 02:03:08;;;;;;;15.13;2.80;;;5.70;99.90;;;;;;5060473;28;20076;-71
2022/02/18 02:05:35;;;;;;;18.85;2.45;;;5.60;99.90;;;;;;5058227;28;20132;-71
2022/02/18 02:08:03;;;;;;;12.47;3.23;;;5.50;99.90;;;;;;5062519;28;20088;-71
2022/02/18 02:10:31;;;;;;;16.83;2.78;;;5.50;99.90;;;;;;5062857;28;20127;-72
2022/02/18 02:12:58;;;;;;;8.48;1.88;;;5.60;99.90;;;;;;5062535;28;20084;-73
2022/02/18 02:15:27;;;;;;;9.98;2.33;;;5.60;99.90;;;;;;5061650;28;20095;-71
2022/02/18 02:18:01;;;;;;;16.23;2.10;;;5.60;99.90;;;;;;5061860;28;20075;-72
2022/02/18 02:20:28;;;;;;;12.43;2.03;;;5.70;99.90;;;;;;5062684;28;20056;-73
2022/02/18 02:22:57;;;;;;;19.95;3.08;;;5.70;99.90;;;;;;5062415;28;20091;-72
2022/02/18 02:25:34;;;;;;;11.17;2.00;;;5.70;99.90;;;;;;5061478;28;20314;-73
2022/02/18 02:28:01;;;;;;;14.90;2.20;;;5.70;99.90;;;;;;5061460;28;20113;-72
2022/02/18 02:30:28;;;;;;;20.70;2.40;;;5.70;99.90;;;;;;5059170;28;20080;-73
2022/02/18 02:32:55;;;;;;;13.07;1.83;;;5.70;99.90;;;;;;5054214;28;20045;-71
2022/02/18 02:35:22;;;;;;;16.33;2.17;;;5.70;99.90;;;;;;5054405;28;20103;-72
2022/02/18 02:37:49;;;;;;;13.30;1.90;;;5.60;99.90;;;;;;5055031;28;20168;-71
2022/02/18 02:40:18;;;;;;;13.67;2.30;;;5.50;99.90;;;;;;5055132;28;20131;-71
2022/02/18 02:42:46;;;;;;;20.30;2.73;;;5.40;99.90;;;;;;5055380;28;20475;-71
2022/02/18 02:45:13;;;;;;;14.40;2.60;;;5.40;99.90;;;;;;5054641;28;20127;-71
2022/02/18 02:47:42;;;;;;;16.47;2.77;;;5.40;99.90;;;;;;5053937;28;20144;-73
2022/02/18 02:50:09;;;;;;;12.03;2.50;;;5.30;99.90;;;;;;5054080;28;20133;-73
2022/02/18 02:52:37;;;;;;;19.87;3.00;;;5.20;99.90;;;;;;5053432;28;20572;-72
2022/02/18 02:55:05;;;;;;;14.63;2.33;;;5.20;99.90;;;;;;5053472;28;20048;-72
2022/02/18 02:57:33;;;;;;;19.00;2.80;;;5.20;99.90;;;;;;5054451;28;20128;-72
2022/02/18 03:00:00;;;;;;;14.30;2.00;;;5.10;99.90;;;;;;5053190;28;20053;-73
2022/02/18 03:02:27;;;;;;;11.90;2.07;;;5.20;99.90;;;;;;5053485;28;20387;-72
2022/02/18 03:04:54;;;;;;;11.93;2.13;;;5.10;99.90;;;;;;5054244;28;20063;-72
2022/02/18 03:07:20;;;;;;;19.70;2.13;;;5.10;99.90;;;;;;5054406;28;20107;-72
2022/02/18 03:09:47;;;;;;;16.97;2.90;;;5.10;99.90;;;;;;5054748;28;20109;-72
2022/02/18 03:12:14;;;;;;;18.23;3.63;;;5.10;99.90;;;;;;5054359;28;20572;-72
2022/02/18 03:14:43;;;;;;;10.80;2.90;;;5.10;99.90;;;;;;5054414;28;20143;-71
2022/02/18 03:17:10;;;;;;;12.10;2.90;;;5.10;99.90;;;;;;5054064;28;20572;-71
2022/02/18 03:19:36;;;;;;;18.40;2.73;;;5.00;99.90;;;;;;5053152;28;20136;-71
2022/02/18 03:22:05;;;;;;;18.53;2.73;;;4.90;99.90;;;;;;5052817;28;20084;-72
2022/02/18 03:24:32;;;;;;;16.47;2.90;;;4.90;99.90;;;;;;5053157;28;20488;-72
2022/02/18 03:26:59;;;;;;;15.53;3.13;;;4.90;99.90;;;;;;5053456;28;20231;-72
2022/02/18 03:29:26;;;;;;;21.20;3.33;;;4.90;99.90;;;;;;5052444;28;20135;-72
2022/02/18 03:31:54;;;;;;;20.03;3.80;;;4.90;99.90;;;;;;5053098;28;20063;-72
2022/02/18 03:34:22;;;;;;;28.73;3.53;;;5.00;99.90;;;;;;5052859;28;20479;-72
2022/02/18 03:36:49;;;;;;;21.90;3.90;;;5.20;99.90;;;;;;5052697;28;20111;-72
2022/02/18 03:39:15;;;;;;;28.03;4.27;;;5.50;99.90;;;;;;5054896;28;20139;-71
2022/02/18 03:41:42;;;;;;;32.90;4.40;;;5.40;99.90;;;;;;5055054;28;20128;-72
2022/02/18 03:44:10;;;;;;;17.57;4.07;;;5.70;99.90;;;;;;5055802;28;20144;-72
2022/02/18 03:46:37;;;;;;;30.87;5.40;;;5.90;99.90;;;;;;5055278;28;20057;-71
2022/02/18 03:49:06;;;;;;;23.83;4.17;;;5.90;99.90;;;;;;5058929;28;20076;-71
2022/02/18 03:51:33;;;;;;;33.23;5.47;;;6.00;99.90;;;;;;5058801;28;20186;-71
2022/02/18 03:54:00;;;;;;;29.57;5.13;;;6.00;99.90;;;;;;5057642;28;20135;-70
2022/02/18 03:56:27;;;;;;;34.30;4.82;;;5.80;99.90;;;;;;5056470;28;20084;-72
2022/02/18 03:58:54;;;;;;;27.43;3.80;;;5.70;99.90;;;;;;5056479;28;20124;-72
2022/02/18 04:01:21;;;;;;;24.13;4.40;;;5.70;99.90;;;;;;5056238;28;20088;-71
2022/02/18 04:03:47;;;;;;;25.00;4.87;;;5.70;99.90;;;;;;5058844;28;20049;-71
2022/02/18 04:06:16;;;;;;;21.92;3.92;;;5.60;99.90;;;;;;5053491;28;20084;-72
2022/02/18 04:08:43;;;;;;;30.83;4.30;;;5.90;99.90;;;;;;5052206;28;20499;-72
2022/02/18 04:11:09;;;;;;;30.58;4.70;;;6.20;99.90;;;;;;5052179;28;20132;-71
2022/02/18 04:13:36;;;;;;;29.00;5.80;;;6.30;99.90;;;;;;5052479;28;20150;-72
2022/02/18 04:18:43;;;;;;;27.13;4.20;;;6.30;99.90;;;;;;5070739;28;20531;-69
2022/02/18 04:21:10;;;;;;;23.63;3.72;;;6.20;99.90;;;;;;5072122;28;20135;-70
2022/02/18 04:23:39;;;;;;;33.28;4.75;;;6.00;99.90;;;;;;5071938;28;20048;-70
2022/02/18 04:26:06;;;;;;;37.55;5.60;;;6.00;99.90;;;;;;5071428;28;20147;-72
2022/02/18 04:28:32;;;;;;;21.70;4.03;;;6.20;99.90;;;;;;5072330;28;20135;-72
2022/02/18 04:30:59;;;;;;;25.73;4.07;;;6.30;99.90;;;;;;5071578;28;20127;-72
2022/02/18 04:33:26;;;;;;;19.75;4.22;;;6.20;99.90;;;;;;5071707;28;20136;-72
2022/02/18 04:35:53;;;;;;;28.23;4.93;;;6.40;99.90;;;;;;5071470;28;20144;-72
2022/02/18 04:38:20;;;;;;;30.52;5.93;;;6.50;99.90;;;;;;5071577;28;20049;-72
2022/02/18 04:40:48;;;;;;;22.35;4.68;;;6.60;99.90;;;;;;5071761;28;20135;-72
2022/02/18 04:43:15;;;;;;;26.52;4.93;;;6.40;99.90;;;;;;5071524;28;20136;-72
2022/02/18 04:45:42;;;;;;;29.77;4.43;;;6.60;99.90;;;;;;5071032;28;20551;-72
2022/02/18 04:48:09;;;;;;;27.40;5.20;;;6.50;99.90;;;;;;5071427;28;20052;-72
2022/02/18 04:50:36;;;;;;;29.23;4.65;;;6.50;99.90;;;;;;5071299;28;20091;-72
2022/02/18 04:53:03;;;;;;;25.67;4.43;;;6.30;99.90;;;;;;5072742;28;20428;-72
2022/02/18 04:55:30;;;;;;;29.42;4.45;;;6.30;99.90;;;;;;5075159;28;20124;-72
2022/02/18 04:57:58;;;;;;;30.42;4.75;;;6.50;99.90;;;;;;5075393;28;20076;-72
2022/02/18 05:00:25;;;;;;;29.58;4.80;;;6.50;99.90;;;;;;5075245;28;20132;-72
2022/02/18 05:02:52;;;;;;;32.53;5.38;;;6.50;99.90;;;;;;5075475;28;20090;-72
2022/02/18 05:05:20;;;;;;;20.08;3.92;;;6.40;99.90;;;;;;5075070;28;20396;-73
2022/02/18 05:07:47;;;;;;;25.05;4.85;;;6.50;99.90;;;;;;5075557;28;20079;-73
2022/02/18 05:10:14;;;;;;;27.08;4.78;;;6.50;99.90;;;;;;5074969;28;20516;-73
2022/02/18 05:12:53;;;;;;;25.10;4.72;;;6.50;99.90;;;;;;5074774;28;20131;-74
2022/02/18 05:15:22;;;;;;;25.70;4.68;;;6.40;99.90;;;;;;5074483;28;20559;-73
2022/02/18 05:17:48;;;;;;;32.70;5.47;;;6.30;99.90;;;;;;5074838;28;20056;-73
2022/02/18 05:20:16;;;;;;;26.38;4.90;;;6.20;99.90;;;;;;5074895;28;20084;-72
2022/02/18 05:22:43;;;;;;;26.98;5.05;;;6.10;99.90;;;;;;5074922;28;20049;-73
2022/02/18 05:25:11;;;;;;;18.37;4.53;;;5.90;99.90;;;;;;5074499;28;20052;-72
2022/02/18 05:27:38;;;;;;;25.63;4.17;;;5.80;99.90;;;;;;5074545;28;20101;-72
2022/02/18 05:30:06;;;;;;;22.93;4.33;;;5.80;99.90;;;;;;5074672;28;20076;-72
2022/02/18 05:32:34;;;;;;;26.00;5.53;;;5.80;99.90;;;;;;5074611;28;20080;-73
2022/02/18 05:35:01;;;;;;;27.27;4.00;;;5.80;99.90;;;;;;5074541;28;20091;-73
2022/02/18 05:37:28;;;;;;;25.13;4.00;;;5.80;99.90;;;;;;5074590;28;20084;-73
2022/02/18 05:39:55;;;;;;;32.30;4.75;;;5.80;99.90;;;;;;5074719;28;20087;-72
2022/02/18 05:42:22;;;;;;;25.63;4.50;;;5.90;99.90;;;;;;5074443;28;20577;-72
2022/02/18 05:44:49;;;;;;;39.83;5.17;;;5.90;99.90;;;;;;5074259;28;20084;-72
2022/02/18 05:47:16;;;;;;;21.70;4.27;;;5.90;99.90;;;;;;5074338;28;20136;-73
2022/02/18 05:49:44;;;;;;;23.90;4.15;;;6.00;99.90;;;;;;5074480;28;20052;-72
2022/02/18 05:52:11;;;;;;;24.60;4.85;;;6.00;99.90;;;;;;5074672;28;20132;-72
2022/02/18 05:54:38;;;;;;;27.45;4.97;;;6.10;99.90;;;;;;5074095;28;20076;-72
2022/02/18 05:57:05;;;;;;;35.63;5.47;;;6.20;99.90;;;;;;5074308;28;20135;-72
2022/02/18 05:59:32;;;;;;;28.92;4.60;;;6.20;99.90;;;;;;5074291;28;20568;-73
2022/02/18 06:01:59;;;;;;;23.98;5.07;;;6.20;99.90;;;;;;5074078;28;20135;-73
2022/02/18 06:04:26;;;;;;;28.48;4.18;;;6.20;99.90;;;;;;5072767;28;20136;-73
2022/02/18 06:06:55;;;;;;;24.70;4.55;;;6.20;99.90;;;;;;5073865;28;20564;-73
2022/02/18 06:09:21;;;;;;;23.98;4.65;;;6.30;99.90;;;;;;5073838;28;20135;-73
2022/02/18 06:11:48;;;;;;;25.83;4.03;;;6.20;99.90;;;;;;5074385;28;20561;-72
2022/02/18 06:14:15;;;;;;;27.25;4.88;;;6.10;99.90;;;;;;5074074;28;20081;-72
2022/02/18 06:16:42;;;;;;;22.77;3.80;;;6.10;99.90;;;;;;5073867;28;20080;-72
2022/02/18 06:19:09;;;;;;;28.63;5.50;;;6.10;99.90;;;;;;5073954;28;20109;-73
2022/02/18 06:21:37;;;;;;;22.93;5.33;;;6.00;99.90;;;;;;5073707;28;20091;-73
2022/02/18 06:24:05;;;;;;;26.08;4.57;;;6.00;99.90;;;;;;5073858;28;20106;-73
2022/02/18 06:26:32;;;;;;;34.13;6.20;;;5.90;99.90;;;;;;5073528;28;20087;-74
2022/02/18 06:28:59;;;;;;;30.40;4.97;;;5.80;99.90;;;;;;5073795;28;20139;-72
2022/02/18 06:31:26;;;;;;;28.13;5.60;;;5.80;99.90;;;;;;5073600;28;20519;-72
2022/02/18 06:33:53;;;;;;;22.17;4.87;;;5.80;99.90;;;;;;5073561;28;20465;-72
2022/02/18 06:36:20;;;;;;;26.80;4.57;;;5.80;99.90;;;;;;5073294;28;20412;-73
2022/02/18 06:38:47;;;;;;;30.13;5.23;;;5.80;99.90;;;;;;5073744;28;20123;-72
2022/02/18 06:41:15;;;;;;;21.93;4.53;;;5.80;99.90;;;;;;5073466;28;20592;-72
2022/02/18 06:43:43;;;;;;;24.13;4.97;;;5.90;99.90;;;;;;5073527;28;20051;-72
2022/02/18 06:46:10;;;;;;;30.65;5.15;;;6.00;99.90;;;;;;5073149;28;20584;-72
2022/02/18 06:48:36;;;;;;;27.98;4.93;;;6.00;99.90;;;;;;5073164;28;20135;-73
2022/02/18 06:51:03;;;;;;;26.10;5.10;;;6.10;99.90;;;;;;5073188;28;20102;-72
2022/02/18 06:53:30;;;;;;;27.05;4.80;;;6.10;99.90;;;;;;5073137;28;20123;-72
2022/02/18 06:55:57;;;;;;;31.17;4.82;;;6.10;99.90;;;;;;5073109;28;20048;-72
2022/02/18 06:58:26;;;;;;;22.45;4.57;;;6.10;99.90;;;;;;5073572;28;20080;-73
2022/02/18 07:00:53;;;;;;;23.73;3.92;;;6.20;99.90;;;;;;5073060;28;20166;-72
2022/02/18 07:03:21;;;;;;;28.42;3.60;;;6.20;99.90;;;;;;5073185;28;20109;-72
2022/02/18 07:05:48;;;;;;;37.95;5.40;;;6.30;99.90;;;;;;5072911;28;20143;-72
2022/02/18 07:08:15;;;;;;;27.15;4.40;;;6.30;99.90;;;;;;5072996;28;20060;-73
2022/02/18 07:10:43;;;;;;;30.27;4.70;;;6.40;99.90;;;;;;5073086;28;20126;-73
2022/02/18 07:13:10;;;;;;;24.00;5.47;;;6.50;99.90;;;;;;5072731;28;20094;-72
2022/02/18 07:15:39;;;;;;;31.30;5.30;;;6.50;99.90;;;;;;5072476;28;20139;-73
2022/02/18 07:18:07;;;;;;;30.30;5.72;;;6.50;99.90;;;;;;5072429;28;20174;-73
2022/02/18 07:20:34;;;;;;;28.73;6.80;;;6.60;99.90;;;;;;5072600;28;20056;-72
2022/02/18 07:23:01;;;;;;;25.42;5.18;;;6.50;99.90;;;;;;5072774;28;20076;-73
2022/02/18 07:25:29;;;;;;;25.48;4.88;;;6.60;99.90;;;;;;5072472;28;20481;-73
2022/02/18 07:27:57;;;;;;;33.05;5.45;;;6.60;99.90;;;;;;5072468;28;20044;-73
2022/02/18 07:30:23;;;;;;;34.10;5.70;;;6.60;99.90;;;;;;5072471;28;20051;-73
2022/02/18 07:32:52;;;;;;;18.15;4.65;;;6.60;99.90;;;;;;5072516;28;20052;-73
2022/02/18 07:35:20;;;;;;;35.20;4.95;;;6.60;99.90;;;;;;5072335;28;20062;-72
2022/02/18 07:37:49;;;;;;;18.13;4.30;;;6.60;99.90;;;;;;5072600;28;20095;-73
2022/02/18 07:40:16;;;;;;;30.17;4.30;;;6.60;99.90;;;;;;5072479;28;20044;-72
2022/02/18 07:42:43;;;;;;;24.90;4.13;;;6.60;99.90;;;;;;5072177;28;20080;-72
2022/02/18 07:45:11;;;;;;;31.67;6.45;;;6.70;99.90;;;;;;5071805;28;20048;-70
2022/02/18 07:47:38;;;;;;;30.00;4.30;;;6.70;99.90;;;;;;5072223;28;20463;-73
2022/02/18 07:50:07;;;;;;;31.63;5.18;;;6.70;99.90;;;;;;5071915;28;20080;-73
2022/02/18 07:52:36;;;;;;;28.55;4.70;;;6.70;99.90;;;;;;5072076;28;20048;-72
2022/02/18 07:55:03;;;;;;;28.05;4.68;;;6.70;99.90;;;;;;5071970;28;20056;-73
2022/02/18 07:57:30;;;;;;;28.70;5.63;;;6.70;99.90;;;;;;5072227;28;20053;-73
2022/02/18 07:59:57;;;;;;;21.85;5.03;;;6.80;99.90;;;;;;5071874;28;20084;-72
2022/02/18 08:02:24;;;;;;;31.67;5.32;;;6.80;99.90;;;;;;5071995;28;20135;-72
2022/02/18 08:04:51;;;;;;;24.33;4.07;;;6.90;99.90;;;;;;5071694;28;20087;-72
2022/02/18 08:07:19;;;;;;;28.00;4.15;;;6.90;99.90;;;;;;5071997;28;20087;-71
2022/02/18 08:09:46;;;;;;;16.63;3.65;;;6.90;99.90;;;;;;5071871;28;20080;-73
2022/02/18 08:12:14;;;;;;;35.17;5.65;;;7.00;99.90;;;;;;5071757;28;20052;-73
2022/02/18 08:14:41;;;;;;;30.48;6.25;;;7.00;99.90;;;;;;5072055;28;20098;-73
2022/02/18 08:17:08;;;;;;;29.38;5.20;;;7.00;99.90;;;;;;5071779;28;20048;-73
2022/02/18 08:19:35;;;;;;;25.60;4.82;;;6.80;99.90;;;;;;5072164;28;20140;-72
2022/02/18 08:22:03;;;;;;;36.50;6.10;;;6.70;99.90;;;;;;5072182;28;20493;-73
2022/02/18 08:24:32;;;;;;;33.00;5.25;;;6.70;99.90;;;;;;5072080;28;20056;-73
2022/02/18 08:27:00;;;;;;;35.33;5.93;;;6.60;99.90;;;;;;5071395;28;20056;-72
2022/02/18 08:29:27;;;;;;;35.88;5.35;;;6.50;99.90;;;;;;5071648;28;20048;-73
2022/02/18 08:31:55;;;;;;;32.38;5.82;;;6.60;99.90;;;;;;5071989;28;20132;-74
2022/02/18 08:34:23;;;;;;;23.55;5.43;;;6.70;99.90;;;;;;5071718;28;20105;-74
2022/02/18 08:36:50;;;;;;;28.77;5.47;;;6.80;99.90;;;;;;5071661;28;20504;-72
2022/02/18 08:39:17;;;;;;;32.30;5.80;;;6.90;99.90;;;;;;5071957;28;20136;-72
2022/02/18 08:41:46;;;;;;;32.00;6.25;;;6.80;99.90;;;;;;5071597;28;20084;-73
2022/02/18 08:44:14;;;;;;;29.33;5.22;;;6.90;99.90;;;;;;5071562;28;20079;-73
2022/02/18 08:46:41;;;;;;;29.95;5.85;;;6.80;99.90;;;;;;5071582;28;20139;-74
2022/02/18 08:49:09;;;;;;;29.83;6.10;;;7.00;99.90;;;;;;5071547;28;20567;-74
2022/02/18 08:51:35;;;;;;;29.30;5.88;;;7.10;99.90;;;;;;5071622;28;20083;-72
2022/02/18 08:54:02;;;;;;;21.95;5.13;;;7.20;99.90;;;;;;5071363;28;20080;-73
2022/02/18 08:56:30;;;;;;;27.55;6.63;;;7.20;99.90;;;;;;5071441;28;20169;-73
2022/02/18 08:58:59;;;;;;;26.27;4.75;;;7.30;99.90;;;;;;5071914;28;20052;-73
2022/02/18 09:01:26;;;;;;;27.17;5.50;;;7.50;99.90;;;;;;5071617;28;20132;-72
2022/02/18 09:03:53;;;;;;;32.67;5.25;;;7.60;99.90;;;;;;5071613;28;20102;-72
2022/02/18 09:06:20;;;;;;;32.78;6.20;;;7.40;99.90;;;;;;5071214;28;20053;-72
2022/02/18 09:08:47;;;;;;;32.75;4.88;;;7.40;99.90;;;;;;5071863;28;20057;-73
2022/02/18 09:11:15;;;;;;;29.35;3.90;;;7.40;99.90;;;;;;5071710;28;20049;-73
2022/02/18 09:13:42;;;;;;;28.70;5.28;;;7.30;99.90;;;;;;5071618;28;20132;-74
2022/02/18 09:16:10;;;;;;;33.80;5.35;;;7.30;99.90;;;;;;5071412;28;20482;-73
2022/02/18 09:18:37;;;;;;;26.42;5.85;;;7.30;99.90;;;;;;5071107;28;20164;-72
2022/02/18 09:21:04;;;;;;;21.55;5.05;;;7.30;99.90;;;;;;5070947;28;20523;-72
2022/02/18 09:23:31;;;;;;;26.15;4.65;;;7.50;99.90;;;;;;5071213;28;20136;-72
2022/02/18 09:25:58;;;;;;;24.38;3.97;;;7.60;99.90;;;;;;5071071;28;20045;-72
2022/02/18 09:28:26;;;;;;;23.17;4.38;;;7.80;99.90;;;;;;5071153;28;20208;-72
2022/02/18 09:30:55;;;;;;;21.40;4.40;;;7.80;99.90;;;;;;5071026;28;20088;-73
2022/02/18 09:33:25;;;;;;;22.10;4.97;;;7.90;99.90;;;;;;5071158;28;20052;-73
2022/02/18 09:35:52;;;;;;;21.13;4.45;;;8.10;99.90;;;;;;5071016;28;20064;-73
2022/02/18 09:38:19;;;;;;;26.17;4.43;;;8.20;99.90;;;;;;5071093;28;20076;-73
2022/02/18 09:40:47;;;;;;;27.48;4.80;;;8.20;99.90;;;;;;5074622;28;20420;-71
2022/02/18 09:43:14;;;;;;;18.65;4.15;;;8.20;99.90;;;;;;5074662;28;20091;-70
2022/02/18 09:45:41;;;;;;;19.23;4.07;;;8.40;99.90;;;;;;5074542;28;20060;-70
2022/02/18 09:48:12;;;;;;;18.33;4.00;;;8.30;99.90;;;;;;5074747;28;20135;-69
2022/02/18 09:50:41;;;;;;;25.55;4.57;;;8.00;99.90;;;;;;5055538;28;20072;-71
2022/02/18 09:53:08;;;;;;;25.00;4.32;;;7.50;99.90;;;;;;5071776;28;20135;-75
2022/02/18 09:55:39;;;;;;;25.13;3.50;;;7.40;99.90;;;;;;5071347;28;20135;-74
2022/02/18 09:58:06;;;;;;;23.88;3.80;;;7.50;99.90;;;;;;5071506;28;20055;-73
2022/02/18 10:00:34;;;;;;;26.00;4.45;;;7.40;99.90;;;;;;5071780;28;20088;-72
2022/02/18 10:03:01;;;;;;;24.40;4.47;;;7.50;99.90;;;;;;5071473;28;20131;-71
2022/02/18 10:05:28;;;;;;;21.70;3.92;;;7.50;99.90;;;;;;5071190;28;20083;-70
2022/02/18 10:08:10;;;;;;;24.80;3.45;;;7.40;99.90;;;;;;5074241;28;20583;-67
2022/02/18 10:10:40;;;;;;;25.75;4.50;;;7.30;99.90;;;;;;5074030;28;20509;-70
2022/02/18 10:13:23;;;;;;;22.75;3.70;;;7.20;99.90;;;;;;5073813;28;20135;-70
2022/02/18 10:15:50;;;;;;;35.10;5.05;;;7.20;99.90;;;;;;5073919;28;20440;-70
2022/02/18 10:18:17;;;;;;;30.58;3.85;;;7.20;99.90;;;;;;5157398;22;20045;-70
2022/02/18 10:20:45;;;;;;;19.55;3.40;;;7.00;99.90;;;;;;5053725;28;20132;-70
2022/02/18 10:23:14;;;;;;;21.88;4.10;;;7.00;99.90;;;;;;5054197;28;20045;-69
2022/02/18 10:25:43;;;;;;;27.77;4.95;;;7.00;99.90;;;;;;5053448;28;20061;-70
2022/02/18 10:28:11;;;;;;;28.05;4.07;;;6.90;99.90;;;;;;5054295;28;20049;-70
2022/02/18 10:30:39;;;;;;;29.55;4.28;;;7.00;99.90;;;;;;5053622;28;20140;-70
2022/02/18 10:33:16;;;;;;;26.48;4.45;;;6.90;99.90;;;;;;5053851;28;20587;-70
2022/02/18 10:35:44;;;;;;;17.48;3.00;;;6.90;99.90;;;;;;5053513;28;20520;-72
2022/02/18 10:38:13;;;;;;;25.45;4.80;;;7.00;99.90;;;;;;5053723;28;20313;-70
2022/02/18 10:40:45;;;;;;;23.35;5.00;;;7.20;99.90;;;;;;5053510;28;20132;-69
2022/02/18 10:43:14;;;;;;;19.25;4.40;;;7.10;99.90;;;;;;5053441;28;20483;-70
2022/02/18 10:45:59;;;;;;;25.90;5.40;;;7.10;99.90;;;;;;5053657;28;20420;-71
2022/02/18 10:48:26;;;;;;;22.70;3.97;;;7.10;99.90;;;;;;5053773;28;20413;-70
2022/02/18 10:51:11;;;;;;;22.05;5.05;;;7.10;99.90;;;;;;5052958;28;20052;-70
2022/02/18 10:53:43;;;;;;;20.92;4.00;;;7.10;99.90;;;;;;5053712;28;20060;-70
2022/02/18 10:56:13;;;;;;;15.52;4.28;;;7.30;99.90;;;;;;5053278;28;20087;-70
2022/02/18 10:58:41;;;;;;;20.63;4.90;;;7.30;99.90;;;;;;5053845;28;20408;-73
2022/02/18 11:01:13;;;;;;;18.90;3.55;;;7.40;99.90;;;;;;5053291;28;20130;-70
2022/02/18 11:03:41;;;;;;;22.40;3.75;;;7.50;99.90;;;;;;5053492;28;20111;-70
2022/02/18 11:06:14;;;;;;;23.70;4.85;;;7.60;99.90;;;;;;5052803;28;20063;-70
2022/02/18 11:08:53;;;;;;;16.92;3.42;;;7.70;99.90;;;;;;5053441;28;20052;-71
2022/02/18 11:11:21;;;;;;;24.13;4.28;;;7.80;99.90;;;;;;5052831;28;20051;-70
2022/02/18 11:13:49;;;;;;;26.23;3.85;;;7.80;99.90;;;;;;5053285;28;20084;-69
2022/02/18 11:16:18;;;;;;;20.05;3.72;;;7.90;99.90;;;;;;5052745;28;20132;-69
2022/02/18 11:18:46;;;;;;;25.02;3.78;;;7.90;99.90;;;;;;5052998;28;20481;-70
2022/02/18 11:21:14;;;;;;;24.15;4.50;;;8.00;99.90;;;;;;5053005;28;20053;-70
2022/02/18 11:23:43;;;;;;;17.70;4.50;;;8.00;99.90;;;;;;5052833;28;20420;-70
2022/02/18 11:26:13;;;;;;;19.95;4.47;;;8.10;99.90;;;;;;5052540;28;20164;-70
2022/02/18 11:28:41;;;;;;;18.70;2.83;;;8.30;99.90;;;;;;5052292;28;20497;-70
2022/02/18 11:31:14;;;;;;;21.30;4.95;;;8.40;99.90;;;;;;5052699;28;20049;-70
2022/02/18 11:34:03;;;;;;;17.55;4.30;;;8.50;99.90;;;;;;5049479;28;20500;-71
2022/02/18 11:36:52;;;;;;;22.00;4.40;;;8.80;99.90;;;;;;5053713;28;20059;-70
2022/02/18 11:39:44;;;;;;;22.48;3.60;;;9.10;99.90;;;;;;5032546;28;20140;-70
2022/02/18 11:42:24;;;;;;;22.60;3.90;;;9.40;99.90;;;;;;5032495;28;20045;-70
2022/02/18 11:44:52;;;;;;;19.90;3.97;;;9.50;99.90;;;;;;5038301;28;20132;-70
2022/02/18 11:47:21;;;;;;;15.25;3.80;;;9.70;99.90;;;;;;5051966;28;20073;-70
2022/02/18 11:49:52;;;;;;;15.80;3.47;;;9.90;99.90;;;;;;5052415;28;20124;-70
2022/02/18 11:52:21;;;;;;;16.45;3.33;;;10.00;99.90;;;;;;5052295;28;20151;-70
2022/02/18 11:54:48;;;;;;;12.45;3.00;;;10.10;99.90;;;;;;5051799;28;20548;-70
2022/02/18 11:57:18;;;;;;;17.08;3.80;;;10.50;99.90;;;;;;5043563;28;20720;-70
2022/02/18 12:00:01;;;;;;;25.45;5.30;;;10.40;99.90;;;;;;5052380;28;20051;-70
2022/02/18 12:02:48;;;;;;;22.67;3.47;;;10.30;99.90;;;;;;5049711;28;20064;-70
2022/02/18 12:05:16;;;;;;;17.52;3.47;;;10.50;99.90;;;;;;5052049;28;20056;-70
2022/02/18 12:07:45;;;;;;;22.20;3.70;;;10.40;99.90;;;;;;5052173;28;20045;-70
2022/02/18 12:10:23;;;;;;;15.82;3.13;;;10.50;99.90;;;;;;5051947;28;20124;-69
2022/02/18 12:12:52;;;;;;;21.00;3.65;;;10.50;99.90;;;;;;5052625;28;20053;-69
2022/02/18 12:15:27;;;;;;;11.93;3.63;;;10.50;99.90;;;;;;5051565;28;20612;-69
2022/02/18 12:18:02;;;;;;;9.50;2.72;;;10.60;99.90;;;;;;5051724;28;20132;-69
2022/02/18 12:20:30;;;;;;;15.18;3.42;;;10.60;99.90;;;;;;5054612;28;20053;-70
2022/02/18 12:22:58;;;;;;;15.05;2.85;;;10.60;99.90;;;;;;5055297;28;20099;-69
2022/02/18 12:25:27;;;;;;;12.82;3.67;;;10.70;99.90;;;;;;5054901;28;20083;-71
2022/02/18 12:28:18;;;;;;;17.50;2.88;;;10.70;99.90;;;;;;5054898;28;20490;-70
2022/02/18 12:30:56;;;;;;;15.48;3.20;;;10.80;99.90;;;;;;5054563;28;20132;-69
2022/02/18 12:33:24;;;;;;;16.05;3.00;;;10.80;99.90;;;;;;5055259;28;20068;-70
2022/02/18 12:35:51;;;;;;;16.10;3.47;;;10.90;99.90;;;;;;5054085;28;20049;-70
2022/02/18 12:38:18;;;;;;;12.30;3.22;;;11.00;99.90;;;;;;5054598;28;20591;-70
2022/02/18 12:40:47;;;;;;;14.57;3.90;;;11.00;99.90;;;;;;5054861;28;20136;-69
2022/02/18 12:43:17;;;;;;;13.73;2.95;;;11.00;99.90;;;;;;5054791;28;20512;-70
2022/02/18 12:45:54;;;;;;;17.00;3.42;;;11.10;99.90;;;;;;5054018;28;20057;-70
2022/02/18 12:48:32;;;;;;;12.80;2.92;;;11.30;99.90;;;;;;5055025;28;20075;-70
2022/02/18 12:51:01;;;;;;;16.08;3.53;;;11.90;99.90;;;;;;5054915;28;20076;-70
2022/02/18 12:53:28;;;;;;;11.18;1.88;;;12.20;99.90;;;;;;5053815;28;20049;-72